TimeEDT,TemperatureF,Dew PointF,Humidity,Sea Level PressureIn,VisibilityMPH,Wind Direction,Wind SpeedMPH,Gust SpeedMPH,PrecipitationIn,Events,Conditions,WindDirDegrees,DateUTC
12:53 AM,73.9,66.9,79,30.24,10.0,Calm,Calm,-,N/A,,Clear,0,2013-07-15 04:53:00
1:53 AM,73.0,66.9,81,30.24,10.0,Calm,Calm,-,N/A,,Clear,0,2013-07-15 05:53:00
2:53 AM,73.0,66.9,81,30.25,8.0,Calm,Calm,-,N/A,,Clear,0,2013-07-15 06:53:00
3:53 AM,71.1,66.0,84,30.25,7.0,Calm,Calm,-,N/A,,Clear,0,2013-07-15 07:53:00
4:53 AM,72.0,66.9,84,30.26,7.0,Calm,Calm,-,N/A,,Clear,0,2013-07-15 08:53:00
5:53 AM,72.0,66.9,84,30.27,6.0,Calm,Calm,-,N/A,,Haze,0,2013-07-15 09:53:00
6:53 AM,73.0,68.0,84,30.27,5.0,Calm,Calm,-,N/A,,Haze,0,2013-07-15 10:53:00
7:53 AM,78.1,70.0,76,30.28,8.0,Calm,Calm,-,N/A,,Clear,0,2013-07-15 11:53:00
8:53 AM,82.0,71.1,69,30.29,10.0,East,3.5,-,N/A,,Clear,80,2013-07-15 12:53:00
9:53 AM,84.9,72.0,65,30.29,10.0,Calm,Calm,-,N/A,,Clear,0,2013-07-15 13:53:00
10:53 AM,88.0,72.0,59,30.29,10.0,Calm,Calm,-,N/A,,Clear,0,2013-07-15 14:53:00
11:53 AM,91.0,72.0,53,30.29,10.0,ESE,5.8,-,N/A,,Scattered Clouds,120,2013-07-15 15:53:00
12:53 PM,93.0,72.0,50,30.28,10.0,Variable,3.5,-,N/A,,Clear,0,2013-07-15 16:53:00
1:53 PM,93.9,71.1,47,30.27,10.0,West,3.5,-,N/A,,Partly Cloudy,280,2013-07-15 17:53:00
2:53 PM,93.9,73.0,51,30.26,10.0,Variable,4.6,-,N/A,,Mostly Cloudy,0,2013-07-15 18:53:00
3:53 PM,93.9,73.0,51,30.25,10.0,West,6.9,-,N/A,,Clear,270,2013-07-15 19:53:00
4:53 PM,93.0,72.0,50,30.25,10.0,West,9.2,-,N/A,,Clear,260,2013-07-15 20:53:00
5:53 PM,90.0,71.1,54,30.24,10.0,West,8.1,-,N/A,,Clear,270,2013-07-15 21:53:00
6:53 PM,90.0,70.0,52,30.23,10.0,WNW,5.8,-,N/A,,Clear,290,2013-07-15 22:53:00
7:53 PM,87.1,73.0,63,30.23,10.0,SW,5.8,-,N/A,,Clear,230,2013-07-15 23:53:00
8:53 PM,84.9,71.1,63,30.24,10.0,West,3.5,-,N/A,,Partly Cloudy,260,2013-07-16 00:53:00
9:53 PM,82.0,71.1,69,30.25,10.0,Calm,Calm,-,N/A,,Clear,0,2013-07-16 01:53:00
10:53 PM,80.1,72.0,76,30.27,10.0,Calm,Calm,-,N/A,,Clear,0,2013-07-16 02:53:00
11:53 PM,79.0,72.0,79,30.26,9.0,SE,3.5,-,N/A,,Clear,140,2013-07-16 03:53:00